sensor_id;sensor_type;location;lat;lon;timestamp;P1;durP1;ratioP1;P2;durP2;ratioP2
36355;SDS011;22384;54.302;18.596;2022-09-21T00:02:11;6.00;;;1.77;;
36355;SDS011;22384;54.302;18.596;2022-09-21T00:04:37;2.80;;;1.60;;
36355;SDS011;22384;54.302;18.596;2022-09-21T00:07:04;4.03;;;1.70;;
36355;SDS011;22384;54.302;18.596;2022-09-21T00:09:32;7.07;;;1.50;;
36355;SDS011;22384;54.302;18.596;2022-09-21T00:12:00;3.85;;;1.50;;
36355;SDS011;22384;54.302;18.596;2022-09-21T00:14:27;2.90;;;1.45;;
36355;SDS011;22384;54.302;18.596;2022-09-21T00:16:53;4.07;;;1.60;;
36355;SDS011;22384;54.302;18.596;2022-09-21T00:19:19;3.45;;;1.38;;
36355;SDS011;22384;54.302;18.596;2022-09-21T00:21:46;7.45;;;2.00;;
36355;SDS011;22384;54.302;18.596;2022-09-21T00:24:12;10.07;;;2.08;;
36355;SDS011;22384;54.302;18.596;2022-09-21T00:26:38;4.45;;;1.90;;
36355;SDS011;22384;54.302;18.596;2022-09-21T00:29:05;5.28;;;2.47;;
36355;SDS011;22384;54.302;18.596;2022-09-21T00:31:32;4.22;;;1.80;;
36355;SDS011;22384;54.302;18.596;2022-09-21T00:33:59;5.97;;;2.00;;
36355;SDS011;22384;54.302;18.596;2022-09-21T00:36:25;3.42;;;1.60;;
36355;SDS011;22384;54.302;18.596;2022-09-21T00:38:55;4.63;;;1.50;;
36355;SDS011;22384;54.302;18.596;2022-09-21T00:41:26;3.33;;;1.30;;
36355;SDS011;22384;54.302;18.596;2022-09-21T00:46:37;3.10;;;1.10;;
36355;SDS011;22384;54.302;18.596;2022-09-21T00:49:05;2.08;;;1.00;;
36355;SDS011;22384;54.302;18.596;2022-09-21T00:51:31;2.83;;;1.33;;
36355;SDS011;22384;54.302;18.596;2022-09-21T00:53:59;2.03;;;1.08;;
36355;SDS011;22384;54.302;18.596;2022-09-21T00:56:26;4.18;;;1.30;;
36355;SDS011;22384;54.302;18.596;2022-09-21T00:58:52;3.35;;;1.25;;
36355;SDS011;22384;54.302;18.596;2022-09-21T01:01:19;2.38;;;1.40;;
36355;SDS011;22384;54.302;18.596;2022-09-21T01:03:46;4.22;;;1.60;;
36355;SDS011;22384;54.302;18.596;2022-09-21T01:06:16;5.72;;;1.80;;
36355;SDS011;22384;54.302;18.596;2022-09-21T01:08:44;5.47;;;1.90;;
36355;SDS011;22384;54.302;18.596;2022-09-21T01:16:14;3.92;;;1.60;;
36355;SDS011;22384;54.302;18.596;2022-09-21T01:23:41;4.70;;;1.60;;
36355;SDS011;22384;54.302;18.596;2022-09-21T01:31:37;4.93;;;1.60;;
36355;SDS011;22384;54.302;18.596;2022-09-21T01:34:06;4.68;;;1.88;;
36355;SDS011;22384;54.302;18.596;2022-09-21T01:36:35;6.47;;;1.58;;
36355;SDS011;22384;54.302;18.596;2022-09-21T01:39:12;4.15;;;1.85;;
36355;SDS011;22384;54.302;18.596;2022-09-21T01:41:39;2.60;;;1.60;;
36355;SDS011;22384;54.302;18.596;2022-09-21T01:44:09;6.93;;;1.50;;
36355;SDS011;22384;54.302;18.596;2022-09-21T01:46:37;4.40;;;1.60;;
36355;SDS011;22384;54.302;18.596;2022-09-21T01:49:14;5.18;;;1.65;;
36355;SDS011;22384;54.302;18.596;2022-09-21T01:51:43;4.78;;;1.42;;
36355;SDS011;22384;54.302;18.596;2022-09-21T01:54:14;5.00;;;1.40;;
36355;SDS011;22384;54.302;18.596;2022-09-21T01:56:44;3.97;;;1.70;;
36355;SDS011;22384;54.302;18.596;2022-09-21T02:01:50;4.78;;;1.45;;
36355;SDS011;22384;54.302;18.596;2022-09-21T02:04:18;7.25;;;1.88;;
36355;SDS011;22384;54.302;18.596;2022-09-21T02:06:45;4.53;;;1.35;;
36355;SDS011;22384;54.302;18.596;2022-09-21T02:09:11;4.90;;;1.60;;
36355;SDS011;22384;54.302;18.596;2022-09-21T02:11:39;5.72;;;1.55;;
36355;SDS011;22384;54.302;18.596;2022-09-21T02:14:14;4.22;;;1.52;;
36355;SDS011;22384;54.302;18.596;2022-09-21T02:19:29;2.22;;;1.48;;
36355;SDS011;22384;54.302;18.596;2022-09-21T02:24:43;10.25;;;1.58;;
36355;SDS011;22384;54.302;18.596;2022-09-21T02:32:23;5.45;;;1.58;;
36355;SDS011;22384;54.302;18.596;2022-09-21T02:37:50;8.57;;;1.67;;
36355;SDS011;22384;54.302;18.596;2022-09-21T02:40:39;6.53;;;1.25;;
36355;SDS011;22384;54.302;18.596;2022-09-21T02:45:59;7.80;;;1.40;;
36355;SDS011;22384;54.302;18.596;2022-09-21T02:48:33;3.50;;;1.38;;
36355;SDS011;22384;54.302;18.596;2022-09-21T02:51:02;3.22;;;1.85;;
36355;SDS011;22384;54.302;18.596;2022-09-21T02:53:32;3.70;;;1.40;;
36355;SDS011;22384;54.302;18.596;2022-09-21T02:56:00;5.40;;;1.73;;
36355;SDS011;22384;54.302;18.596;2022-09-21T02:58:29;2.58;;;1.25;;
36355;SDS011;22384;54.302;18.596;2022-09-21T03:00:59;5.30;;;1.20;;
36355;SDS011;22384;54.302;18.596;2022-09-21T03:03:25;2.05;;;1.23;;
36355;SDS011;22384;54.302;18.596;2022-09-21T03:05:52;3.55;;;1.42;;
36355;SDS011;22384;54.302;18.596;2022-09-21T03:08:19;4.65;;;1.55;;
36355;SDS011;22384;54.302;18.596;2022-09-21T03:10:46;2.05;;;1.52;;
36355;SDS011;22384;54.302;18.596;2022-09-21T03:13:32;4.32;;;1.17;;
36355;SDS011;22384;54.302;18.596;2022-09-21T03:16:03;3.58;;;1.27;;
36355;SDS011;22384;54.302;18.596;2022-09-21T03:18:33;3.90;;;1.42;;
36355;SDS011;22384;54.302;18.596;2022-09-21T03:20:59;3.20;;;1.23;;
36355;SDS011;22384;54.302;18.596;2022-09-21T03:23:26;3.13;;;1.20;;
36355;SDS011;22384;54.302;18.596;2022-09-21T03:25:52;4.70;;;1.10;;
36355;SDS011;22384;54.302;18.596;2022-09-21T03:28:19;2.67;;;1.20;;
36355;SDS011;22384;54.302;18.596;2022-09-21T03:30:46;4.70;;;1.23;;
36355;SDS011;22384;54.302;18.596;2022-09-21T03:33:13;6.88;;;1.40;;
36355;SDS011;22384;54.302;18.596;2022-09-21T03:35:39;5.15;;;1.23;;
36355;SDS011;22384;54.302;18.596;2022-09-21T03:38:06;3.08;;;1.77;;
36355;SDS011;22384;54.302;18.596;2022-09-21T03:40:33;2.17;;;1.23;;
36355;SDS011;22384;54.302;18.596;2022-09-21T03:43:01;1.70;;;1.10;;
36355;SDS011;22384;54.302;18.596;2022-09-21T03:45:27;1.48;;;1.05;;
36355;SDS011;22384;54.302;18.596;2022-09-21T03:47:55;1.58;;;1.10;;
36355;SDS011;22384;54.302;18.596;2022-09-21T03:50:22;8.55;;;1.40;;
36355;SDS011;22384;54.302;18.596;2022-09-21T03:52:48;1.23;;;1.05;;
36355;SDS011;22384;54.302;18.596;2022-09-21T03:55:15;2.95;;;1.00;;
36355;SDS011;22384;54.302;18.596;2022-09-21T03:57:41;1.60;;;1.05;;
36355;SDS011;22384;54.302;18.596;2022-09-21T04:00:08;2.30;;;1.00;;
36355;SDS011;22384;54.302;18.596;2022-09-21T04:02:36;2.88;;;1.00;;
36355;SDS011;22384;54.302;18.596;2022-09-21T04:05:03;1.45;;;1.00;;
36355;SDS011;22384;54.302;18.596;2022-09-21T04:07:37;1.15;;;0.85;;
36355;SDS011;22384;54.302;18.596;2022-09-21T04:10:05;1.90;;;0.95;;
36355;SDS011;22384;54.302;18.596;2022-09-21T04:12:35;5.18;;;1.00;;
36355;SDS011;22384;54.302;18.596;2022-09-21T04:15:04;2.25;;;1.98;;
36355;SDS011;22384;54.302;18.596;2022-09-21T04:17:32;4.00;;;1.05;;
36355;SDS011;22384;54.302;18.596;2022-09-21T04:19:58;3.17;;;0.98;;
36355;SDS011;22384;54.302;18.596;2022-09-21T04:22:25;1.73;;;0.75;;
36355;SDS011;22384;54.302;18.596;2022-09-21T04:24:51;1.02;;;0.82;;
36355;SDS011;22384;54.302;18.596;2022-09-21T04:27:17;4.28;;;1.02;;
36355;SDS011;22384;54.302;18.596;2022-09-21T04:29:44;2.67;;;0.90;;
36355;SDS011;22384;54.302;18.596;2022-09-21T04:32:10;2.88;;;1.20;;
36355;SDS011;22384;54.302;18.596;2022-09-21T04:34:38;2.60;;;1.15;;
36355;SDS011;22384;54.302;18.596;2022-09-21T04:37:05;4.30;;;1.45;;
36355;SDS011;22384;54.302;18.596;2022-09-21T04:39:35;5.20;;;1.83;;
36355;SDS011;22384;54.302;18.596;2022-09-21T04:42:01;3.90;;;1.42;;
36355;SDS011;22384;54.302;18.596;2022-09-21T04:44:28;2.42;;;1.30;;
36355;SDS011;22384;54.302;18.596;2022-09-21T04:46:55;3.67;;;1.60;;
36355;SDS011;22384;54.302;18.596;2022-09-21T04:49:21;5.85;;;1.52;;
36355;SDS011;22384;54.302;18.596;2022-09-21T04:51:48;2.85;;;1.33;;
36355;SDS011;22384;54.302;18.596;2022-09-21T04:54:14;3.25;;;1.40;;
36355;SDS011;22384;54.302;18.596;2022-09-21T04:56:40;4.82;;;1.55;;
36355;SDS011;22384;54.302;18.596;2022-09-21T04:59:06;4.82;;;1.70;;
36355;SDS011;22384;54.302;18.596;2022-09-21T05:01:32;2.15;;;1.35;;
36355;SDS011;22384;54.302;18.596;2022-09-21T05:03:59;4.70;;;1.20;;
36355;SDS011;22384;54.302;18.596;2022-09-21T05:06:30;4.25;;;1.70;;
36355;SDS011;22384;54.302;18.596;2022-09-21T05:08:57;3.20;;;1.38;;
36355;SDS011;22384;54.302;18.596;2022-09-21T05:11:42;3.42;;;0.85;;
36355;SDS011;22384;54.302;18.596;2022-09-21T05:14:09;6.72;;;1.00;;
36355;SDS011;22384;54.302;18.596;2022-09-21T05:16:36;4.38;;;1.00;;
36355;SDS011;22384;54.302;18.596;2022-09-21T05:19:02;0.90;;;0.70;;
36355;SDS011;22384;54.302;18.596;2022-09-21T05:21:28;1.20;;;0.73;;
36355;SDS011;22384;54.302;18.596;2022-09-21T05:23:58;2.33;;;0.98;;
36355;SDS011;22384;54.302;18.596;2022-09-21T05:26:24;4.63;;;1.10;;
36355;SDS011;22384;54.302;18.596;2022-09-21T05:29:10;2.28;;;1.10;;
36355;SDS011;22384;54.302;18.596;2022-09-21T05:39:20;1.65;;;0.77;;
36355;SDS011;22384;54.302;18.596;2022-09-21T05:41:46;3.97;;;0.90;;
36355;SDS011;22384;54.302;18.596;2022-09-21T05:44:12;2.47;;;1.10;;
36355;SDS011;22384;54.302;18.596;2022-09-21T05:49:12;4.05;;;1.10;;
36355;SDS011;22384;54.302;18.596;2022-09-21T05:51:47;3.00;;;1.00;;
36355;SDS011;22384;54.302;18.596;2022-09-21T05:54:24;1.88;;;1.10;;
36355;SDS011;22384;54.302;18.596;2022-09-21T05:57:04;3.90;;;1.35;;
36355;SDS011;22384;54.302;18.596;2022-09-21T06:02:47;4.68;;;1.52;;
36355;SDS011;22384;54.302;18.596;2022-09-21T06:05:15;2.05;;;1.30;;
36355;SDS011;22384;54.302;18.596;2022-09-21T06:07:42;5.30;;;1.90;;
36355;SDS011;22384;54.302;18.596;2022-09-21T06:10:11;8.50;;;2.22;;
36355;SDS011;22384;54.302;18.596;2022-09-21T06:12:37;4.10;;;1.98;;
36355;SDS011;22384;54.302;18.596;2022-09-21T06:15:04;12.02;;;2.47;;
36355;SDS011;22384;54.302;18.596;2022-09-21T06:17:31;4.15;;;1.70;;
36355;SDS011;22384;54.302;18.596;2022-09-21T06:19:57;6.13;;;1.88;;
36355;SDS011;22384;54.302;18.596;2022-09-21T06:22:23;6.55;;;1.55;;
36355;SDS011;22384;54.302;18.596;2022-09-21T06:24:49;5.60;;;1.90;;
36355;SDS011;22384;54.302;18.596;2022-09-21T06:27:16;7.10;;;1.55;;
36355;SDS011;22384;54.302;18.596;2022-09-21T06:29:42;4.70;;;1.48;;
36355;SDS011;22384;54.302;18.596;2022-09-21T06:32:08;2.88;;;1.45;;
36355;SDS011;22384;54.302;18.596;2022-09-21T06:34:34;2.08;;;1.55;;
36355;SDS011;22384;54.302;18.596;2022-09-21T06:37:02;3.58;;;1.45;;
36355;SDS011;22384;54.302;18.596;2022-09-21T06:39:28;2.50;;;1.17;;
36355;SDS011;22384;54.302;18.596;2022-09-21T06:41:54;4.63;;;1.38;;
36355;SDS011;22384;54.302;18.596;2022-09-21T06:44:21;4.57;;;1.40;;
36355;SDS011;22384;54.302;18.596;2022-09-21T06:46:47;5.50;;;1.33;;
36355;SDS011;22384;54.302;18.596;2022-09-21T06:49:14;2.95;;;1.20;;
36355;SDS011;22384;54.302;18.596;2022-09-21T06:51:40;1.75;;;1.10;;
36355;SDS011;22384;54.302;18.596;2022-09-21T06:54:07;3.58;;;1.38;;
36355;SDS011;22384;54.302;18.596;2022-09-21T06:56:33;6.45;;;1.33;;
36355;SDS011;22384;54.302;18.596;2022-09-21T06:59:00;2.42;;;1.15;;
36355;SDS011;22384;54.302;18.596;2022-09-21T07:01:26;4.63;;;1.15;;
36355;SDS011;22384;54.302;18.596;2022-09-21T07:03:52;4.82;;;1.35;;
36355;SDS011;22384;54.302;18.596;2022-09-21T07:06:18;5.80;;;1.42;;
36355;SDS011;22384;54.302;18.596;2022-09-21T07:08:45;5.97;;;1.58;;
36355;SDS011;22384;54.302;18.596;2022-09-21T07:11:12;3.30;;;1.10;;
36355;SDS011;22384;54.302;18.596;2022-09-21T07:13:39;3.70;;;1.63;;
36355;SDS011;22384;54.302;18.596;2022-09-21T07:16:06;4.55;;;1.48;;
36355;SDS011;22384;54.302;18.596;2022-09-21T07:18:34;4.68;;;1.52;;
36355;SDS011;22384;54.302;18.596;2022-09-21T07:21:02;2.92;;;1.50;;
36355;SDS011;22384;54.302;18.596;2022-09-21T07:23:28;3.72;;;1.35;;
36355;SDS011;22384;54.302;18.596;2022-09-21T07:25:54;4.15;;;1.27;;
36355;SDS011;22384;54.302;18.596;2022-09-21T07:28:20;2.53;;;1.60;;
36355;SDS011;22384;54.302;18.596;2022-09-21T07:30:47;8.85;;;1.80;;
36355;SDS011;22384;54.302;18.596;2022-09-21T07:33:14;4.32;;;1.90;;
36355;SDS011;22384;54.302;18.596;2022-09-21T07:35:40;5.07;;;1.63;;
36355;SDS011;22384;54.302;18.596;2022-09-21T07:38:14;8.90;;;1.95;;
36355;SDS011;22384;54.302;18.596;2022-09-21T07:40:41;8.60;;;2.08;;
36355;SDS011;22384;54.302;18.596;2022-09-21T07:43:07;9.00;;;2.00;;
36355;SDS011;22384;54.302;18.596;2022-09-21T07:45:33;3.75;;;1.98;;
36355;SDS011;22384;54.302;18.596;2022-09-21T07:48:05;9.55;;;2.00;;
36355;SDS011;22384;54.302;18.596;2022-09-21T07:50:33;6.00;;;1.90;;
36355;SDS011;22384;54.302;18.596;2022-09-21T07:53:00;8.75;;;1.98;;
36355;SDS011;22384;54.302;18.596;2022-09-21T07:55:26;5.55;;;2.00;;
36355;SDS011;22384;54.302;18.596;2022-09-21T07:57:52;5.45;;;1.95;;
36355;SDS011;22384;54.302;18.596;2022-09-21T08:00:37;6.68;;;2.17;;
36355;SDS011;22384;54.302;18.596;2022-09-21T08:03:04;4.53;;;1.42;;
36355;SDS011;22384;54.302;18.596;2022-09-21T08:05:31;4.05;;;1.42;;
36355;SDS011;22384;54.302;18.596;2022-09-21T08:07:57;7.00;;;1.40;;
36355;SDS011;22384;54.302;18.596;2022-09-21T08:10:24;3.10;;;0.80;;
36355;SDS011;22384;54.302;18.596;2022-09-21T08:12:55;2.90;;;1.45;;
36355;SDS011;22384;54.302;18.596;2022-09-21T08:15:21;2.92;;;1.02;;
36355;SDS011;22384;54.302;18.596;2022-09-21T08:17:48;4.10;;;0.88;;
36355;SDS011;22384;54.302;18.596;2022-09-21T08:20:16;3.63;;;1.00;;
36355;SDS011;22384;54.302;18.596;2022-09-21T08:22:42;2.03;;;0.70;;
36355;SDS011;22384;54.302;18.596;2022-09-21T08:25:09;1.48;;;0.80;;
36355;SDS011;22384;54.302;18.596;2022-09-21T08:27:35;2.28;;;0.80;;
36355;SDS011;22384;54.302;18.596;2022-09-21T08:30:02;2.50;;;0.80;;
36355;SDS011;22384;54.302;18.596;2022-09-21T08:32:29;1.23;;;0.80;;
36355;SDS011;22384;54.302;18.596;2022-09-21T08:34:56;2.83;;;0.90;;
36355;SDS011;22384;54.302;18.596;2022-09-21T08:37:22;3.63;;;0.75;;
36355;SDS011;22384;54.302;18.596;2022-09-21T08:39:48;1.70;;;0.80;;
36355;SDS011;22384;54.302;18.596;2022-09-21T08:45:09;3.75;;;0.85;;
36355;SDS011;22384;54.302;18.596;2022-09-21T08:50:39;2.88;;;0.98;;
36355;SDS011;22384;54.302;18.596;2022-09-21T08:53:08;3.45;;;0.80;;
36355;SDS011;22384;54.302;18.596;2022-09-21T08:55:36;6.15;;;1.88;;
36355;SDS011;22384;54.302;18.596;2022-09-21T08:58:02;2.40;;;0.80;;
36355;SDS011;22384;54.302;18.596;2022-09-21T09:00:30;0.45;;;0.40;;
36355;SDS011;22384;54.302;18.596;2022-09-21T09:03:12;0.80;;;0.70;;
36355;SDS011;22384;54.302;18.596;2022-09-21T09:10:59;1.80;;;0.68;;
36355;SDS011;22384;54.302;18.596;2022-09-21T09:16:08;3.10;;;0.80;;
36355;SDS011;22384;54.302;18.596;2022-09-21T09:18:51;1.05;;;0.70;;
36355;SDS011;22384;54.302;18.596;2022-09-21T09:21:26;2.17;;;0.55;;
36355;SDS011;22384;54.302;18.596;2022-09-21T09:26:50;2.45;;;0.70;;
36355;SDS011;22384;54.302;18.596;2022-09-21T09:29:22;2.22;;;0.63;;
36355;SDS011;22384;54.302;18.596;2022-09-21T09:31:51;3.20;;;0.98;;
36355;SDS011;22384;54.302;18.596;2022-09-21T09:34:22;3.28;;;0.57;;
36355;SDS011;22384;54.302;18.596;2022-09-21T09:36:51;4.95;;;0.80;;
36355;SDS011;22384;54.302;18.596;2022-09-21T09:39:19;2.30;;;0.53;;
36355;SDS011;22384;54.302;18.596;2022-09-21T09:52:00;1.42;;;0.80;;
36355;SDS011;22384;54.302;18.596;2022-09-21T09:54:27;1.70;;;0.70;;
36355;SDS011;22384;54.302;18.596;2022-09-21T09:56:54;3.78;;;0.60;;
36355;SDS011;22384;54.302;18.596;2022-09-21T10:01:57;3.25;;;0.80;;
36355;SDS011;22384;54.302;18.596;2022-09-21T10:04:23;4.85;;;0.80;;
36355;SDS011;22384;54.302;18.596;2022-09-21T10:06:49;1.33;;;0.50;;
36355;SDS011;22384;54.302;18.596;2022-09-21T10:09:21;3.05;;;0.70;;
36355;SDS011;22384;54.302;18.596;2022-09-21T10:11:48;2.65;;;0.40;;
36355;SDS011;22384;54.302;18.596;2022-09-21T10:14:18;2.50;;;0.55;;
36355;SDS011;22384;54.302;18.596;2022-09-21T10:16:45;1.33;;;0.63;;
36355;SDS011;22384;54.302;18.596;2022-09-21T10:19:14;3.15;;;0.70;;
36355;SDS011;22384;54.302;18.596;2022-09-21T10:21:41;1.27;;;0.63;;
36355;SDS011;22384;54.302;18.596;2022-09-21T10:26:41;1.90;;;0.60;;
36355;SDS011;22384;54.302;18.596;2022-09-21T10:31:57;7.22;;;0.90;;
36355;SDS011;22384;54.302;18.596;2022-09-21T10:34:24;1.20;;;0.68;;
36355;SDS011;22384;54.302;18.596;2022-09-21T10:36:53;7.38;;;0.60;;
36355;SDS011;22384;54.302;18.596;2022-09-21T10:44:22;1.38;;;0.63;;
36355;SDS011;22384;54.302;18.596;2022-09-21T10:46:50;0.73;;;0.70;;
36355;SDS011;22384;54.302;18.596;2022-09-21T10:49:24;2.70;;;0.80;;
36355;SDS011;22384;54.302;18.596;2022-09-21T10:51:51;2.75;;;1.00;;
36355;SDS011;22384;54.302;18.596;2022-09-21T10:54:23;2.55;;;0.73;;
36355;SDS011;22384;54.302;18.596;2022-09-21T10:57:03;1.85;;;1.00;;
36355;SDS011;22384;54.302;18.596;2022-09-21T10:59:32;3.70;;;0.65;;
36355;SDS011;22384;54.302;18.596;2022-09-21T11:02:01;1.27;;;0.80;;
36355;SDS011;22384;54.302;18.596;2022-09-21T11:04:30;1.23;;;0.60;;
36355;SDS011;22384;54.302;18.596;2022-09-21T11:07:00;0.82;;;0.75;;
36355;SDS011;22384;54.302;18.596;2022-09-21T11:09:30;3.40;;;0.93;;
36355;SDS011;22384;54.302;18.596;2022-09-21T11:12:02;1.85;;;0.70;;
36355;SDS011;22384;54.302;18.596;2022-09-21T11:17:07;4.13;;;0.77;;
36355;SDS011;22384;54.302;18.596;2022-09-21T11:19:43;1.17;;;0.60;;
36355;SDS011;22384;54.302;18.596;2022-09-21T11:22:17;0.80;;;0.60;;
36355;SDS011;22384;54.302;18.596;2022-09-21T11:27:24;4.05;;;0.93;;
36355;SDS011;22384;54.302;18.596;2022-09-21T11:40:13;4.18;;;0.95;;
36355;SDS011;22384;54.302;18.596;2022-09-21T11:50:39;2.42;;;1.00;;
36355;SDS011;22384;54.302;18.596;2022-09-21T12:00:49;6.03;;;1.05;;
36355;SDS011;22384;54.302;18.596;2022-09-21T12:16:25;5.13;;;1.00;;
36355;SDS011;22384;54.302;18.596;2022-09-21T12:18:59;1.67;;;1.00;;
36355;SDS011;22384;54.302;18.596;2022-09-21T12:24:31;2.47;;;0.88;;
36355;SDS011;22384;54.302;18.596;2022-09-21T12:27:33;2.00;;;0.80;;
36355;SDS011;22384;54.302;18.596;2022-09-21T12:29:52;0.60;;;0.50;;
36355;SDS011;22384;54.302;18.596;2022-09-21T12:34:54;2.45;;;1.15;;
36355;SDS011;22384;54.302;18.596;2022-09-21T12:37:25;2.83;;;0.80;;
36355;SDS011;22384;54.302;18.596;2022-09-21T12:42:37;1.65;;;0.70;;
36355;SDS011;22384;54.302;18.596;2022-09-21T12:50:55;3.17;;;1.00;;
36355;SDS011;22384;54.302;18.596;2022-09-21T12:53:26;1.38;;;0.77;;
36355;SDS011;22384;54.302;18.596;2022-09-21T12:56:02;2.30;;;0.73;;
36355;SDS011;22384;54.302;18.596;2022-09-21T12:58:37;4.28;;;0.73;;
36355;SDS011;22384;54.302;18.596;2022-09-21T13:01:14;2.10;;;0.40;;
36355;SDS011;22384;54.302;18.596;2022-09-21T13:03:59;1.33;;;0.95;;
36355;SDS011;22384;54.302;18.596;2022-09-21T13:06:32;4.72;;;0.70;;
36355;SDS011;22384;54.302;18.596;2022-09-21T13:09:03;1.27;;;0.82;;
36355;SDS011;22384;54.302;18.596;2022-09-21T13:11:31;0.70;;;0.70;;
36355;SDS011;22384;54.302;18.596;2022-09-21T13:13:59;6.93;;;0.90;;
36355;SDS011;22384;54.302;18.596;2022-09-21T13:18:57;5.97;;;0.85;;
36355;SDS011;22384;54.302;18.596;2022-09-21T13:21:26;1.52;;;0.80;;
36355;SDS011;22384;54.302;18.596;2022-09-21T13:24:03;2.65;;;0.70;;
36355;SDS011;22384;54.302;18.596;2022-09-21T13:26:38;3.25;;;0.80;;
36355;SDS011;22384;54.302;18.596;2022-09-21T13:29:23;2.00;;;0.80;;
36355;SDS011;22384;54.302;18.596;2022-09-21T13:31:58;1.50;;;0.70;;
36355;SDS011;22384;54.302;18.596;2022-09-21T13:34:34;1.63;;;0.60;;
36355;SDS011;22384;54.302;18.596;2022-09-21T13:40:29;1.75;;;0.80;;
36355;SDS011;22384;54.302;18.596;2022-09-21T13:42:44;1.27;;;0.75;;
36355;SDS011;22384;54.302;18.596;2022-09-21T13:47:46;3.42;;;0.80;;
36355;SDS011;22384;54.302;18.596;2022-09-21T13:50:19;3.67;;;0.77;;
36355;SDS011;22384;54.302;18.596;2022-09-21T13:52:49;1.17;;;0.73;;
36355;SDS011;22384;54.302;18.596;2022-09-21T13:55:25;1.35;;;0.63;;
36355;SDS011;22384;54.302;18.596;2022-09-21T13:57:53;1.40;;;0.75;;
36355;SDS011;22384;54.302;18.596;2022-09-21T14:00:37;5.63;;;1.00;;
36355;SDS011;22384;54.302;18.596;2022-09-21T14:03:26;1.17;;;0.70;;
36355;SDS011;22384;54.302;18.596;2022-09-21T14:05:52;4.57;;;0.63;;
36355;SDS011;22384;54.302;18.596;2022-09-21T14:08:24;3.00;;;0.70;;
36355;SDS011;22384;54.302;18.596;2022-09-21T14:11:01;4.85;;;1.77;;
36355;SDS011;22384;54.302;18.596;2022-09-21T14:15:56;3.28;;;0.90;;
36355;SDS011;22384;54.302;18.596;2022-09-21T14:18:41;4.38;;;1.20;;
36355;SDS011;22384;54.302;18.596;2022-09-21T14:21:13;2.15;;;0.90;;
36355;SDS011;22384;54.302;18.596;2022-09-21T14:24:07;3.40;;;1.10;;
36355;SDS011;22384;54.302;18.596;2022-09-21T14:28:55;8.90;;;0.93;;
36355;SDS011;22384;54.302;18.596;2022-09-21T14:31:26;1.80;;;0.70;;
36355;SDS011;22384;54.302;18.596;2022-09-21T14:33:54;2.05;;;0.98;;
36355;SDS011;22384;54.302;18.596;2022-09-21T14:36:23;1.35;;;0.80;;
36355;SDS011;22384;54.302;18.596;2022-09-21T14:38:51;1.65;;;0.90;;
36355;SDS011;22384;54.302;18.596;2022-09-21T14:41:20;1.95;;;0.90;;
36355;SDS011;22384;54.302;18.596;2022-09-21T14:43:48;1.65;;;0.73;;
36355;SDS011;22384;54.302;18.596;2022-09-21T14:46:23;2.50;;;0.70;;
36355;SDS011;22384;54.302;18.596;2022-09-21T14:49:02;0.77;;;0.60;;
36355;SDS011;22384;54.302;18.596;2022-09-21T14:56:48;3.92;;;0.77;;
36355;SDS011;22384;54.302;18.596;2022-09-21T15:01:56;2.80;;;0.85;;
36355;SDS011;22384;54.302;18.596;2022-09-21T15:04:28;1.27;;;0.52;;
36355;SDS011;22384;54.302;18.596;2022-09-21T15:12:50;1.73;;;0.80;;
36355;SDS011;22384;54.302;18.596;2022-09-21T15:17:59;4.63;;;1.00;;
36355;SDS011;22384;54.302;18.596;2022-09-21T15:20:27;2.75;;;0.95;;
36355;SDS011;22384;54.302;18.596;2022-09-21T15:22:54;1.70;;;1.00;;
36355;SDS011;22384;54.302;18.596;2022-09-21T15:25:21;2.75;;;1.02;;
36355;SDS011;22384;54.302;18.596;2022-09-21T15:27:48;2.80;;;1.02;;
36355;SDS011;22384;54.302;18.596;2022-09-21T15:30:39;3.85;;;1.30;;
36355;SDS011;22384;54.302;18.596;2022-09-21T15:33:04;4.05;;;1.08;;
36355;SDS011;22384;54.302;18.596;2022-09-21T15:35:31;3.00;;;1.23;;
36355;SDS011;22384;54.302;18.596;2022-09-21T15:37:58;2.72;;;0.90;;
36355;SDS011;22384;54.302;18.596;2022-09-21T15:40:32;3.05;;;0.93;;
36355;SDS011;22384;54.302;18.596;2022-09-21T15:43:15;3.60;;;1.50;;
36355;SDS011;22384;54.302;18.596;2022-09-21T15:48:18;4.10;;;0.98;;
36355;SDS011;22384;54.302;18.596;2022-09-21T15:50:45;4.18;;;1.00;;
36355;SDS011;22384;54.302;18.596;2022-09-21T15:53:18;2.88;;;0.82;;
36355;SDS011;22384;54.302;18.596;2022-09-21T15:55:47;1.52;;;1.10;;
36355;SDS011;22384;54.302;18.596;2022-09-21T15:58:29;1.83;;;1.23;;
36355;SDS011;22384;54.302;18.596;2022-09-21T16:01:03;2.67;;;1.27;;
36355;SDS011;22384;54.302;18.596;2022-09-21T16:03:34;3.95;;;1.30;;
36355;SDS011;22384;54.302;18.596;2022-09-21T16:06:00;3.10;;;1.38;;
36355;SDS011;22384;54.302;18.596;2022-09-21T16:08:41;4.70;;;1.48;;
36355;SDS011;22384;54.302;18.596;2022-09-21T16:11:12;3.47;;;1.48;;
36355;SDS011;22384;54.302;18.596;2022-09-21T16:13:40;2.58;;;1.30;;
36355;SDS011;22384;54.302;18.596;2022-09-21T16:16:25;5.20;;;1.77;;
36355;SDS011;22384;54.302;18.596;2022-09-21T16:18:52;4.25;;;1.77;;
36355;SDS011;22384;54.302;18.596;2022-09-21T16:21:27;4.05;;;1.33;;
36355;SDS011;22384;54.302;18.596;2022-09-21T16:23:55;3.88;;;1.70;;
36355;SDS011;22384;54.302;18.596;2022-09-21T16:26:24;5.65;;;1.58;;
36355;SDS011;22384;54.302;18.596;2022-09-21T16:31:36;4.65;;;1.90;;
36355;SDS011;22384;54.302;18.596;2022-09-21T16:34:04;3.38;;;1.90;;
36355;SDS011;22384;54.302;18.596;2022-09-21T16:38:58;11.48;;;5.50;;
36355;SDS011;22384;54.302;18.596;2022-09-21T16:41:28;11.45;;;3.17;;
36355;SDS011;22384;54.302;18.596;2022-09-21T16:43:57;8.60;;;2.70;;
36355;SDS011;22384;54.302;18.596;2022-09-21T16:46:24;6.75;;;3.03;;
36355;SDS011;22384;54.302;18.596;2022-09-21T16:48:52;7.90;;;2.75;;
36355;SDS011;22384;54.302;18.596;2022-09-21T16:51:19;6.43;;;2.67;;
36355;SDS011;22384;54.302;18.596;2022-09-21T16:53:50;4.80;;;3.10;;
36355;SDS011;22384;54.302;18.596;2022-09-21T16:56:17;6.00;;;3.55;;
36355;SDS011;22384;54.302;18.596;2022-09-21T16:58:44;8.35;;;2.97;;
36355;SDS011;22384;54.302;18.596;2022-09-21T17:01:30;8.05;;;2.38;;
36355;SDS011;22384;54.302;18.596;2022-09-21T17:03:57;4.65;;;1.85;;
36355;SDS011;22384;54.302;18.596;2022-09-21T17:06:23;5.78;;;1.90;;
36355;SDS011;22384;54.302;18.596;2022-09-21T17:08:49;4.28;;;1.90;;
36355;SDS011;22384;54.302;18.596;2022-09-21T17:11:16;4.85;;;1.60;;
36355;SDS011;22384;54.302;18.596;2022-09-21T17:13:45;2.80;;;1.52;;
36355;SDS011;22384;54.302;18.596;2022-09-21T17:16:11;2.60;;;1.63;;
36355;SDS011;22384;54.302;18.596;2022-09-21T17:18:45;4.20;;;1.73;;
36355;SDS011;22384;54.302;18.596;2022-09-21T17:21:11;4.03;;;1.65;;
36355;SDS011;22384;54.302;18.596;2022-09-21T17:23:38;6.28;;;2.13;;
36355;SDS011;22384;54.302;18.596;2022-09-21T17:26:12;6.07;;;2.25;;
36355;SDS011;22384;54.302;18.596;2022-09-21T17:28:45;8.65;;;3.05;;
36355;SDS011;22384;54.302;18.596;2022-09-21T17:31:12;3.35;;;1.85;;
36355;SDS011;22384;54.302;18.596;2022-09-21T17:33:39;2.97;;;1.52;;
36355;SDS011;22384;54.302;18.596;2022-09-21T17:36:06;4.93;;;2.03;;
36355;SDS011;22384;54.302;18.596;2022-09-21T17:38:35;7.90;;;2.38;;
36355;SDS011;22384;54.302;18.596;2022-09-21T17:41:02;6.15;;;1.92;;
36355;SDS011;22384;54.302;18.596;2022-09-21T17:43:48;6.25;;;2.30;;
36355;SDS011;22384;54.302;18.596;2022-09-21T17:49:24;4.97;;;2.40;;
36355;SDS011;22384;54.302;18.596;2022-09-21T17:51:50;5.28;;;2.20;;
36355;SDS011;22384;54.302;18.596;2022-09-21T17:54:35;6.80;;;1.73;;
36355;SDS011;22384;54.302;18.596;2022-09-21T17:59:33;7.57;;;1.90;;